Portada
METAR-TAF:

METAR-TAF

Aeropuertos :

Dakar, Senegal

Aeropuerto Internacional de Dakar-Yoff/Léopold Sédar Senghor

latitud: 14-44N, longitud: 017-30W, altitud: 27 m

Observación

El informe se hizo hace 1 hora y 36 minutos, a las 19:00 UTC
Viento 10 kt del norte
Temperatura 24°C
Humedad 61%
Presión 1015 hPa
Visibilidad: 6000 m

METAR: GOOY 161900Z 36010KT 6000 NSC 24/16 Q1015

Hora: 20:36 (20:36 UTC)

Pronóstico

El informe se hizo hace 3 horas y 6 minutos, a las 17:30 UTC
Pronóstico válido del 16 a las 18 UTC al 17 a las 24 UTC
Viento 13 kt del noreste
Visibilidad: 6000 m

TAF: GOOY 161730Z 1618/1724 04013KT 6000 NSC

Observaciones y pronósticos meteorológicos de más de 4000 aeropuertos (mensajes METAR y TAF).

Los puntos amarillos y rojos representan las estaciones disponibles.

Ponga el ratón en el punto deseado para ver el nombre de la estación.

Haga clic para ver las observaciones y los pronósticos meteorológicos.

Para cambiar el mapa : haga clic en los botones verdes con una cruz de color negro para hacer un zoom, en el botón verde con un guión para alejar o en las flechas verdes para mapas adyacentes.


METAR-TAF: